sensor_id;sensor_type;location;lat;lon;timestamp;P1;durP1;ratioP1;P2;durP2;ratioP2
37937;SDS011;23763;48.130;11.602;2023-02-01T00:01:54;8.40;;;7.73;;
37937;SDS011;23763;48.130;11.602;2023-02-01T00:04:19;8.70;;;7.90;;
37937;SDS011;23763;48.130;11.602;2023-02-01T00:06:45;8.00;;;7.50;;
37937;SDS011;23763;48.130;11.602;2023-02-01T00:09:11;8.30;;;7.63;;
37937;SDS011;23763;48.130;11.602;2023-02-01T00:11:37;8.13;;;7.53;;
37937;SDS011;23763;48.130;11.602;2023-02-01T00:14:03;8.20;;;7.60;;
37937;SDS011;23763;48.130;11.602;2023-02-01T00:16:29;8.00;;;7.40;;
37937;SDS011;23763;48.130;11.602;2023-02-01T00:18:57;7.60;;;7.13;;
37937;SDS011;23763;48.130;11.602;2023-02-01T00:21:34;7.47;;;7.00;;
37937;SDS011;23763;48.130;11.602;2023-02-01T00:24:00;8.07;;;7.57;;
37937;SDS011;23763;48.130;11.602;2023-02-01T00:28:59;7.53;;;7.13;;
37937;SDS011;23763;48.130;11.602;2023-02-01T00:31:25;8.23;;;7.50;;
37937;SDS011;23763;48.130;11.602;2023-02-01T00:33:51;8.33;;;7.73;;
37937;SDS011;23763;48.130;11.602;2023-02-01T00:36:16;7.53;;;7.03;;
37937;SDS011;23763;48.130;11.602;2023-02-01T00:38:43;8.17;;;7.57;;
37937;SDS011;23763;48.130;11.602;2023-02-01T00:41:14;7.53;;;7.03;;
37937;SDS011;23763;48.130;11.602;2023-02-01T00:43:42;7.27;;;6.87;;
37937;SDS011;23763;48.130;11.602;2023-02-01T00:46:08;7.47;;;7.00;;
37937;SDS011;23763;48.130;11.602;2023-02-01T00:48:35;7.83;;;7.33;;
37937;SDS011;23763;48.130;11.602;2023-02-01T00:51:02;7.77;;;7.17;;
37937;SDS011;23763;48.130;11.602;2023-02-01T00:53:30;8.47;;;7.87;;
37937;SDS011;23763;48.130;11.602;2023-02-01T00:55:56;7.93;;;7.33;;
37937;SDS011;23763;48.130;11.602;2023-02-01T00:58:22;8.27;;;7.67;;
37937;SDS011;23763;48.130;11.602;2023-02-01T01:01:05;8.10;;;7.57;;
37937;SDS011;23763;48.130;11.602;2023-02-01T01:03:39;7.60;;;7.10;;
37937;SDS011;23763;48.130;11.602;2023-02-01T01:06:08;7.70;;;7.20;;
37937;SDS011;23763;48.130;11.602;2023-02-01T01:08:36;7.67;;;7.17;;
37937;SDS011;23763;48.130;11.602;2023-02-01T01:11:06;8.07;;;7.57;;
37937;SDS011;23763;48.130;11.602;2023-02-01T01:13:33;8.53;;;7.93;;
37937;SDS011;23763;48.130;11.602;2023-02-01T01:16:02;9.20;;;8.30;;
37937;SDS011;23763;48.130;11.602;2023-02-01T01:18:30;8.37;;;7.87;;
37937;SDS011;23763;48.130;11.602;2023-02-01T01:20:56;8.57;;;7.93;;
37937;SDS011;23763;48.130;11.602;2023-02-01T01:23:23;8.37;;;7.70;;
37937;SDS011;23763;48.130;11.602;2023-02-01T01:25:49;8.53;;;7.83;;
37937;SDS011;23763;48.130;11.602;2023-02-01T01:28:15;8.97;;;8.37;;
37937;SDS011;23763;48.130;11.602;2023-02-01T01:30:40;8.93;;;8.23;;
37937;SDS011;23763;48.130;11.602;2023-02-01T01:33:06;8.83;;;8.13;;
37937;SDS011;23763;48.130;11.602;2023-02-01T01:35:32;8.83;;;8.20;;
37937;SDS011;23763;48.130;11.602;2023-02-01T01:37:58;9.07;;;8.47;;
37937;SDS011;23763;48.130;11.602;2023-02-01T01:40:25;9.30;;;8.60;;
37937;SDS011;23763;48.130;11.602;2023-02-01T01:42:52;9.03;;;8.43;;
37937;SDS011;23763;48.130;11.602;2023-02-01T01:45:27;8.60;;;8.07;;
37937;SDS011;23763;48.130;11.602;2023-02-01T01:47:57;8.70;;;8.10;;
37937;SDS011;23763;48.130;11.602;2023-02-01T01:50:30;8.77;;;8.07;;
37937;SDS011;23763;48.130;11.602;2023-02-01T01:53:00;8.87;;;8.27;;
37937;SDS011;23763;48.130;11.602;2023-02-01T01:55:27;9.40;;;8.63;;
37937;SDS011;23763;48.130;11.602;2023-02-01T01:57:58;9.27;;;8.47;;
37937;SDS011;23763;48.130;11.602;2023-02-01T02:00:28;8.83;;;8.13;;
37937;SDS011;23763;48.130;11.602;2023-02-01T02:02:57;9.17;;;8.57;;
37937;SDS011;23763;48.130;11.602;2023-02-01T02:05:25;10.00;;;9.20;;
37937;SDS011;23763;48.130;11.602;2023-02-01T02:07:52;9.53;;;8.83;;
37937;SDS011;23763;48.130;11.602;2023-02-01T02:10:21;10.57;;;9.57;;
37937;SDS011;23763;48.130;11.602;2023-02-01T02:13:07;9.93;;;9.10;;
37937;SDS011;23763;48.130;11.602;2023-02-01T02:15:33;9.70;;;8.80;;
37937;SDS011;23763;48.130;11.602;2023-02-01T02:18:04;9.77;;;8.83;;
37937;SDS011;23763;48.130;11.602;2023-02-01T02:40:22;9.23;;;8.63;;
37937;SDS011;23763;48.130;11.602;2023-02-01T02:46:22;9.27;;;8.57;;
37937;SDS011;23763;48.130;11.602;2023-02-01T02:49:14;9.93;;;9.03;;
37937;SDS011;23763;48.130;11.602;2023-02-01T02:51:55;9.53;;;8.73;;
37937;SDS011;23763;48.130;11.602;2023-02-01T02:54:43;9.30;;;8.70;;
37937;SDS011;23763;48.130;11.602;2023-02-01T02:57:58;9.47;;;8.70;;
37937;SDS011;23763;48.130;11.602;2023-02-01T03:00:21;8.23;;;7.63;;
37937;SDS011;23763;48.130;11.602;2023-02-01T03:03:10;9.17;;;8.47;;
37937;SDS011;23763;48.130;11.602;2023-02-01T03:05:54;8.63;;;8.03;;
37937;SDS011;23763;48.130;11.602;2023-02-01T03:08:22;9.00;;;8.40;;
37937;SDS011;23763;48.130;11.602;2023-02-01T03:13:30;9.30;;;8.47;;
37937;SDS011;23763;48.130;11.602;2023-02-01T03:21:51;8.77;;;8.17;;
37937;SDS011;23763;48.130;11.602;2023-02-01T03:24:24;9.00;;;8.40;;
37937;SDS011;23763;48.130;11.602;2023-02-01T03:27:15;9.07;;;8.47;;
37937;SDS011;23763;48.130;11.602;2023-02-01T03:29:56;9.47;;;8.77;;
37937;SDS011;23763;48.130;11.602;2023-02-01T03:32:46;8.93;;;8.33;;
37937;SDS011;23763;48.130;11.602;2023-02-01T03:35:37;8.80;;;8.20;;
37937;SDS011;23763;48.130;11.602;2023-02-01T03:41:33;8.90;;;8.17;;
37937;SDS011;23763;48.130;11.602;2023-02-01T03:43:51;9.30;;;8.50;;
37937;SDS011;23763;48.130;11.602;2023-02-01T03:46:31;7.73;;;7.10;;
37937;SDS011;23763;48.130;11.602;2023-02-01T03:49:09;8.80;;;8.20;;
37937;SDS011;23763;48.130;11.602;2023-02-01T03:51:38;8.57;;;8.07;;
37937;SDS011;23763;48.130;11.602;2023-02-01T03:54:06;8.03;;;7.43;;
37937;SDS011;23763;48.130;11.602;2023-02-01T03:56:36;8.30;;;7.70;;
37937;SDS011;23763;48.130;11.602;2023-02-01T03:59:04;8.97;;;8.30;;
37937;SDS011;23763;48.130;11.602;2023-02-01T04:01:32;8.77;;;8.10;;
37937;SDS011;23763;48.130;11.602;2023-02-01T04:03:59;8.23;;;7.73;;
37937;SDS011;23763;48.130;11.602;2023-02-01T04:06:24;8.53;;;7.93;;
37937;SDS011;23763;48.130;11.602;2023-02-01T04:08:50;8.33;;;7.83;;
37937;SDS011;23763;48.130;11.602;2023-02-01T04:11:16;8.37;;;7.87;;
37937;SDS011;23763;48.130;11.602;2023-02-01T04:13:42;9.43;;;8.73;;
37937;SDS011;23763;48.130;11.602;2023-02-01T04:16:08;9.00;;;8.20;;
37937;SDS011;23763;48.130;11.602;2023-02-01T04:18:34;8.67;;;8.10;;
37937;SDS011;23763;48.130;11.602;2023-02-01T04:21:00;8.50;;;7.90;;
37937;SDS011;23763;48.130;11.602;2023-02-01T04:23:27;9.50;;;8.70;;
37937;SDS011;23763;48.130;11.602;2023-02-01T04:25:53;8.53;;;8.00;;
37937;SDS011;23763;48.130;11.602;2023-02-01T04:28:18;9.00;;;8.30;;
37937;SDS011;23763;48.130;11.602;2023-02-01T04:30:44;8.97;;;8.27;;
37937;SDS011;23763;48.130;11.602;2023-02-01T04:33:11;9.03;;;8.37;;
37937;SDS011;23763;48.130;11.602;2023-02-01T04:35:39;8.77;;;8.17;;
37937;SDS011;23763;48.130;11.602;2023-02-01T04:38:05;8.97;;;8.37;;
37937;SDS011;23763;48.130;11.602;2023-02-01T04:40:31;8.57;;;7.97;;
37937;SDS011;23763;48.130;11.602;2023-02-01T04:42:57;8.73;;;8.23;;
37937;SDS011;23763;48.130;11.602;2023-02-01T04:45:23;8.37;;;7.77;;
37937;SDS011;23763;48.130;11.602;2023-02-01T04:47:48;8.63;;;8.13;;
37937;SDS011;23763;48.130;11.602;2023-02-01T04:50:14;8.67;;;7.97;;
37937;SDS011;23763;48.130;11.602;2023-02-01T04:52:40;8.73;;;8.03;;
37937;SDS011;23763;48.130;11.602;2023-02-01T04:55:06;9.03;;;8.43;;
37937;SDS011;23763;48.130;11.602;2023-02-01T04:57:32;8.83;;;8.23;;
37937;SDS011;23763;48.130;11.602;2023-02-01T04:59:58;8.60;;;8.00;;
37937;SDS011;23763;48.130;11.602;2023-02-01T05:02:23;9.07;;;8.57;;
37937;SDS011;23763;48.130;11.602;2023-02-01T05:04:49;9.27;;;8.50;;
37937;SDS011;23763;48.130;11.602;2023-02-01T05:07:15;9.27;;;8.40;;
37937;SDS011;23763;48.130;11.602;2023-02-01T05:09:41;9.07;;;8.40;;
37937;SDS011;23763;48.130;11.602;2023-02-01T05:12:07;9.23;;;8.60;;
37937;SDS011;23763;48.130;11.602;2023-02-01T05:14:53;10.50;;;9.33;;
37937;SDS011;23763;48.130;11.602;2023-02-01T05:17:19;9.57;;;8.80;;
37937;SDS011;23763;48.130;11.602;2023-02-01T05:19:44;9.90;;;9.00;;
37937;SDS011;23763;48.130;11.602;2023-02-01T05:22:10;9.73;;;9.13;;
37937;SDS011;23763;48.130;11.602;2023-02-01T05:24:35;9.80;;;9.10;;
37937;SDS011;23763;48.130;11.602;2023-02-01T05:27:01;10.03;;;9.27;;
37937;SDS011;23763;48.130;11.602;2023-02-01T05:29:27;9.67;;;8.97;;
37937;SDS011;23763;48.130;11.602;2023-02-01T05:31:52;9.80;;;9.10;;
37937;SDS011;23763;48.130;11.602;2023-02-01T05:34:18;12.97;;;9.30;;
37937;SDS011;23763;48.130;11.602;2023-02-01T05:36:44;9.87;;;9.07;;
37937;SDS011;23763;48.130;11.602;2023-02-01T05:39:09;9.60;;;8.90;;
37937;SDS011;23763;48.130;11.602;2023-02-01T05:41:35;9.53;;;8.83;;
37937;SDS011;23763;48.130;11.602;2023-02-01T05:44:01;10.60;;;9.33;;
37937;SDS011;23763;48.130;11.602;2023-02-01T05:46:27;10.43;;;9.53;;
37937;SDS011;23763;48.130;11.602;2023-02-01T05:48:53;10.07;;;9.47;;
37937;SDS011;23763;48.130;11.602;2023-02-01T05:51:19;9.50;;;8.80;;
37937;SDS011;23763;48.130;11.602;2023-02-01T05:53:44;10.00;;;9.10;;
37937;SDS011;23763;48.130;11.602;2023-02-01T05:56:10;10.40;;;9.30;;
37937;SDS011;23763;48.130;11.602;2023-02-01T05:58:35;9.13;;;8.60;;
37937;SDS011;23763;48.130;11.602;2023-02-01T06:01:02;10.43;;;9.50;;
37937;SDS011;23763;48.130;11.602;2023-02-01T06:03:28;9.63;;;8.97;;
37937;SDS011;23763;48.130;11.602;2023-02-01T06:05:54;10.77;;;9.97;;
37937;SDS011;23763;48.130;11.602;2023-02-01T06:08:20;9.77;;;9.00;;
37937;SDS011;23763;48.130;11.602;2023-02-01T06:10:46;9.97;;;9.27;;
37937;SDS011;23763;48.130;11.602;2023-02-01T06:13:11;9.83;;;9.23;;
37937;SDS011;23763;48.130;11.602;2023-02-01T06:15:37;10.30;;;9.40;;
37937;SDS011;23763;48.130;11.602;2023-02-01T06:18:03;10.70;;;9.90;;
37937;SDS011;23763;48.130;11.602;2023-02-01T06:20:29;10.67;;;9.77;;
37937;SDS011;23763;48.130;11.602;2023-02-01T06:22:54;10.47;;;9.67;;
37937;SDS011;23763;48.130;11.602;2023-02-01T06:25:20;10.17;;;9.37;;
37937;SDS011;23763;48.130;11.602;2023-02-01T06:27:46;10.83;;;9.70;;
37937;SDS011;23763;48.130;11.602;2023-02-01T06:30:13;9.90;;;9.20;;
37937;SDS011;23763;48.130;11.602;2023-02-01T06:32:39;9.33;;;8.73;;
37937;SDS011;23763;48.130;11.602;2023-02-01T06:35:06;10.43;;;9.53;;
37937;SDS011;23763;48.130;11.602;2023-02-01T06:37:33;10.33;;;9.57;;
37937;SDS011;23763;48.130;11.602;2023-02-01T06:39:59;9.93;;;9.23;;
37937;SDS011;23763;48.130;11.602;2023-02-01T06:42:24;10.40;;;9.40;;
37937;SDS011;23763;48.130;11.602;2023-02-01T06:44:50;11.43;;;10.30;;
37937;SDS011;23763;48.130;11.602;2023-02-01T06:47:16;10.33;;;9.57;;
37937;SDS011;23763;48.130;11.602;2023-02-01T06:49:42;10.13;;;9.33;;
37937;SDS011;23763;48.130;11.602;2023-02-01T06:52:07;10.33;;;9.73;;
37937;SDS011;23763;48.130;11.602;2023-02-01T06:54:33;10.50;;;9.77;;
37937;SDS011;23763;48.130;11.602;2023-02-01T06:56:59;10.20;;;9.37;;
37937;SDS011;23763;48.130;11.602;2023-02-01T06:59:25;10.50;;;9.50;;
37937;SDS011;23763;48.130;11.602;2023-02-01T07:01:50;10.00;;;9.30;;
37937;SDS011;23763;48.130;11.602;2023-02-01T07:04:16;10.00;;;9.20;;
37937;SDS011;23763;48.130;11.602;2023-02-01T07:06:41;10.20;;;9.40;;
37937;SDS011;23763;48.130;11.602;2023-02-01T07:09:07;9.77;;;9.10;;
37937;SDS011;23763;48.130;11.602;2023-02-01T07:11:33;9.57;;;8.90;;
37937;SDS011;23763;48.130;11.602;2023-02-01T07:13:58;9.90;;;9.20;;
37937;SDS011;23763;48.130;11.602;2023-02-01T07:16:25;9.73;;;8.93;;
37937;SDS011;23763;48.130;11.602;2023-02-01T07:18:51;9.10;;;8.50;;
37937;SDS011;23763;48.130;11.602;2023-02-01T07:21:18;8.93;;;8.30;;
37937;SDS011;23763;48.130;11.602;2023-02-01T07:23:44;9.10;;;8.50;;
37937;SDS011;23763;48.130;11.602;2023-02-01T07:26:11;9.33;;;8.53;;
37937;SDS011;23763;48.130;11.602;2023-02-01T07:28:38;9.10;;;8.50;;
37937;SDS011;23763;48.130;11.602;2023-02-01T07:31:08;8.93;;;8.17;;
37937;SDS011;23763;48.130;11.602;2023-02-01T07:33:35;9.27;;;8.63;;
37937;SDS011;23763;48.130;11.602;2023-02-01T07:36:02;8.97;;;8.40;;
37937;SDS011;23763;48.130;11.602;2023-02-01T07:38:29;8.70;;;8.03;;
37937;SDS011;23763;48.130;11.602;2023-02-01T07:40:58;8.63;;;8.10;;
37937;SDS011;23763;48.130;11.602;2023-02-01T07:43:25;9.00;;;8.40;;
37937;SDS011;23763;48.130;11.602;2023-02-01T07:45:51;8.83;;;8.23;;
37937;SDS011;23763;48.130;11.602;2023-02-01T07:48:18;8.67;;;8.17;;
37937;SDS011;23763;48.130;11.602;2023-02-01T07:50:45;8.70;;;8.00;;
37937;SDS011;23763;48.130;11.602;2023-02-01T07:53:10;8.50;;;7.90;;
37937;SDS011;23763;48.130;11.602;2023-02-01T07:55:39;8.10;;;7.60;;
37937;SDS011;23763;48.130;11.602;2023-02-01T07:58:05;8.17;;;7.70;;
37937;SDS011;23763;48.130;11.602;2023-02-01T08:00:31;8.60;;;7.93;;
37937;SDS011;23763;48.130;11.602;2023-02-01T08:03:15;7.77;;;7.37;;
37937;SDS011;23763;48.130;11.602;2023-02-01T08:05:41;7.90;;;7.50;;
37937;SDS011;23763;48.130;11.602;2023-02-01T08:08:07;8.43;;;7.83;;
37937;SDS011;23763;48.130;11.602;2023-02-01T08:10:32;8.00;;;7.50;;
37937;SDS011;23763;48.130;11.602;2023-02-01T08:13:00;7.80;;;7.30;;
37937;SDS011;23763;48.130;11.602;2023-02-01T08:15:27;7.53;;;7.03;;
37937;SDS011;23763;48.130;11.602;2023-02-01T08:17:53;7.80;;;7.20;;
37937;SDS011;23763;48.130;11.602;2023-02-01T08:20:19;6.97;;;6.50;;
37937;SDS011;23763;48.130;11.602;2023-02-01T08:22:49;7.40;;;6.93;;
37937;SDS011;23763;48.130;11.602;2023-02-01T08:25:15;7.30;;;6.83;;
37937;SDS011;23763;48.130;11.602;2023-02-01T08:27:41;7.63;;;7.03;;
37937;SDS011;23763;48.130;11.602;2023-02-01T08:30:08;7.87;;;7.37;;
37937;SDS011;23763;48.130;11.602;2023-02-01T08:32:34;7.67;;;7.17;;
37937;SDS011;23763;48.130;11.602;2023-02-01T08:35:00;8.47;;;7.77;;
37937;SDS011;23763;48.130;11.602;2023-02-01T08:37:26;7.90;;;7.40;;
37937;SDS011;23763;48.130;11.602;2023-02-01T08:39:52;7.73;;;7.23;;
37937;SDS011;23763;48.130;11.602;2023-02-01T08:42:18;7.67;;;7.17;;
37937;SDS011;23763;48.130;11.602;2023-02-01T08:45:03;7.57;;;6.97;;
37937;SDS011;23763;48.130;11.602;2023-02-01T08:47:29;7.83;;;7.33;;
37937;SDS011;23763;48.130;11.602;2023-02-01T08:49:55;7.47;;;6.87;;
37937;SDS011;23763;48.130;11.602;2023-02-01T08:52:21;8.07;;;7.40;;
37937;SDS011;23763;48.130;11.602;2023-02-01T08:54:46;7.43;;;6.93;;
37937;SDS011;23763;48.130;11.602;2023-02-01T08:57:12;7.80;;;7.30;;
37937;SDS011;23763;48.130;11.602;2023-02-01T08:59:38;8.23;;;7.47;;
37937;SDS011;23763;48.130;11.602;2023-02-01T09:02:04;7.63;;;7.13;;
37937;SDS011;23763;48.130;11.602;2023-02-01T09:04:29;9.47;;;7.20;;
37937;SDS011;23763;48.130;11.602;2023-02-01T09:06:55;7.77;;;7.10;;
37937;SDS011;23763;48.130;11.602;2023-02-01T09:09:23;8.07;;;7.37;;
37937;SDS011;23763;48.130;11.602;2023-02-01T09:11:49;7.47;;;6.93;;
37937;SDS011;23763;48.130;11.602;2023-02-01T09:14:15;7.97;;;6.85;;
37937;SDS011;23763;48.130;11.602;2023-02-01T09:16:42;7.35;;;6.85;;
37937;SDS011;23763;48.130;11.602;2023-02-01T09:19:07;7.53;;;6.93;;
37937;SDS011;23763;48.130;11.602;2023-02-01T09:21:33;7.55;;;6.82;;
37937;SDS011;23763;48.130;11.602;2023-02-01T09:23:59;7.80;;;7.30;;
37937;SDS011;23763;48.130;11.602;2023-02-01T09:26:25;7.78;;;7.03;;
37937;SDS011;23763;48.130;11.602;2023-02-01T09:28:51;7.60;;;6.93;;
37937;SDS011;23763;48.130;11.602;2023-02-01T09:31:16;7.65;;;7.10;;
37937;SDS011;23763;48.130;11.602;2023-02-01T09:33:42;7.72;;;7.03;;
37937;SDS011;23763;48.130;11.602;2023-02-01T09:36:08;7.63;;;7.05;;
37937;SDS011;23763;48.130;11.602;2023-02-01T09:38:34;8.38;;;7.68;;
37937;SDS011;23763;48.130;11.602;2023-02-01T09:41:00;7.63;;;7.22;;
37937;SDS011;23763;48.130;11.602;2023-02-01T09:46:29;8.00;;;7.30;;
37937;SDS011;23763;48.130;11.602;2023-02-01T09:49:00;10.93;;;10.07;;
37937;SDS011;23763;48.130;11.602;2023-02-01T09:51:33;8.32;;;7.68;;
37937;SDS011;23763;48.130;11.602;2023-02-01T09:56:40;8.57;;;7.70;;
37937;SDS011;23763;48.130;11.602;2023-02-01T10:02:03;7.63;;;7.22;;
37937;SDS011;23763;48.130;11.602;2023-02-01T10:04:30;8.15;;;7.38;;
37937;SDS011;23763;48.130;11.602;2023-02-01T10:09:34;7.70;;;7.15;;
37937;SDS011;23763;48.130;11.602;2023-02-01T10:19:22;8.27;;;7.47;;
37937;SDS011;23763;48.130;11.602;2023-02-01T10:24:28;7.97;;;7.32;;
37937;SDS011;23763;48.130;11.602;2023-02-01T10:27:08;7.88;;;7.30;;
37937;SDS011;23763;48.130;11.602;2023-02-01T10:29:38;6.95;;;6.53;;
37937;SDS011;23763;48.130;11.602;2023-02-01T10:32:12;7.70;;;7.10;;
37937;SDS011;23763;48.130;11.602;2023-02-01T10:34:39;8.43;;;7.53;;
37937;SDS011;23763;48.130;11.602;2023-02-01T10:37:15;8.35;;;7.75;;
37937;SDS011;23763;48.130;11.602;2023-02-01T10:39:48;9.55;;;7.95;;
37937;SDS011;23763;48.130;11.602;2023-02-01T10:42:15;7.53;;;7.03;;
37937;SDS011;23763;48.130;11.602;2023-02-01T10:44:46;8.13;;;7.47;;
37937;SDS011;23763;48.130;11.602;2023-02-01T10:47:13;8.20;;;7.45;;
37937;SDS011;23763;48.130;11.602;2023-02-01T10:49:43;7.60;;;7.10;;
37937;SDS011;23763;48.130;11.602;2023-02-01T10:54:46;7.50;;;6.95;;
37937;SDS011;23763;48.130;11.602;2023-02-01T10:57:21;7.60;;;7.20;;
37937;SDS011;23763;48.130;11.602;2023-02-01T10:59:50;10.10;;;9.20;;
37937;SDS011;23763;48.130;11.602;2023-02-01T11:05:04;8.13;;;7.60;;
37937;SDS011;23763;48.130;11.602;2023-02-01T11:07:33;13.07;;;9.60;;
37937;SDS011;23763;48.130;11.602;2023-02-01T11:09:59;8.30;;;7.63;;
37937;SDS011;23763;48.130;11.602;2023-02-01T11:12:31;8.38;;;7.82;;
37937;SDS011;23763;48.130;11.602;2023-02-01T11:14:59;7.70;;;7.20;;
37937;SDS011;23763;48.130;11.602;2023-02-01T11:17:32;8.55;;;7.93;;
37937;SDS011;23763;48.130;11.602;2023-02-01T11:20:06;7.95;;;7.25;;
37937;SDS011;23763;48.130;11.602;2023-02-01T11:22:46;8.10;;;7.50;;
37937;SDS011;23763;48.130;11.602;2023-02-01T11:25:14;8.15;;;7.45;;
37937;SDS011;23763;48.130;11.602;2023-02-01T11:27:42;8.30;;;7.40;;
37937;SDS011;23763;48.130;11.602;2023-02-01T11:30:19;9.05;;;8.02;;
37937;SDS011;23763;48.130;11.602;2023-02-01T11:32:55;7.82;;;7.30;;
37937;SDS011;23763;48.130;11.602;2023-02-01T11:35:21;8.45;;;7.68;;
37937;SDS011;23763;48.130;11.602;2023-02-01T11:37:58;8.68;;;7.88;;
37937;SDS011;23763;48.130;11.602;2023-02-01T11:40:43;8.50;;;7.90;;
37937;SDS011;23763;48.130;11.602;2023-02-01T11:45:57;8.50;;;7.70;;
37937;SDS011;23763;48.130;11.602;2023-02-01T11:48:29;7.70;;;7.20;;
37937;SDS011;23763;48.130;11.602;2023-02-01T11:58:50;8.68;;;7.85;;
37937;SDS011;23763;48.130;11.602;2023-02-01T12:06:51;7.97;;;7.38;;
37937;SDS011;23763;48.130;11.602;2023-02-01T12:09:39;8.00;;;6.97;;
37937;SDS011;23763;48.130;11.602;2023-02-01T12:12:17;8.88;;;8.23;;
37937;SDS011;23763;48.130;11.602;2023-02-01T12:21:06;10.75;;;8.00;;
37937;SDS011;23763;48.130;11.602;2023-02-01T12:24:11;9.82;;;8.00;;
37937;SDS011;23763;48.130;11.602;2023-02-01T12:29:39;8.48;;;7.88;;
37937;SDS011;23763;48.130;11.602;2023-02-01T12:35:06;9.02;;;8.32;;
37937;SDS011;23763;48.130;11.602;2023-02-01T12:40:33;10.95;;;8.73;;
37937;SDS011;23763;48.130;11.602;2023-02-01T12:43:09;9.13;;;8.33;;
37937;SDS011;23763;48.130;11.602;2023-02-01T12:45:47;8.50;;;7.60;;
37937;SDS011;23763;48.130;11.602;2023-02-01T12:50:59;8.60;;;7.80;;
37937;SDS011;23763;48.130;11.602;2023-02-01T12:56:25;8.70;;;8.10;;
37937;SDS011;23763;48.130;11.602;2023-02-01T12:59:02;7.80;;;7.20;;
37937;SDS011;23763;48.130;11.602;2023-02-01T13:01:34;8.00;;;7.20;;
37937;SDS011;23763;48.130;11.602;2023-02-01T13:04:12;10.43;;;7.20;;
37937;SDS011;23763;48.130;11.602;2023-02-01T13:12:25;7.40;;;7.00;;
37937;SDS011;23763;48.130;11.602;2023-02-01T13:15:11;8.90;;;7.40;;
37937;SDS011;23763;48.130;11.602;2023-02-01T13:17:53;7.20;;;6.60;;
37937;SDS011;23763;48.130;11.602;2023-02-01T13:20:36;7.60;;;7.10;;
37937;SDS011;23763;48.130;11.602;2023-02-01T13:25:50;7.77;;;7.07;;
37937;SDS011;23763;48.130;11.602;2023-02-01T13:28:24;7.97;;;7.27;;
37937;SDS011;23763;48.130;11.602;2023-02-01T13:36:41;8.03;;;7.23;;
37937;SDS011;23763;48.130;11.602;2023-02-01T13:42:16;8.73;;;7.93;;
37937;SDS011;23763;48.130;11.602;2023-02-01T13:44:50;8.20;;;7.37;;
37937;SDS011;23763;48.130;11.602;2023-02-01T13:53:01;8.00;;;7.40;;
37937;SDS011;23763;48.130;11.602;2023-02-01T13:55:31;8.23;;;7.43;;
37937;SDS011;23763;48.130;11.602;2023-02-01T14:00:37;7.47;;;6.93;;
37937;SDS011;23763;48.130;11.602;2023-02-01T14:10:46;10.57;;;7.33;;
37937;SDS011;23763;48.130;11.602;2023-02-01T14:13:27;7.93;;;7.33;;
37937;SDS011;23763;48.130;11.602;2023-02-01T14:18:54;7.70;;;6.90;;
37937;SDS011;23763;48.130;11.602;2023-02-01T14:21:31;9.93;;;7.70;;
37937;SDS011;23763;48.130;11.602;2023-02-01T14:31:43;7.90;;;7.30;;
37937;SDS011;23763;48.130;11.602;2023-02-01T14:34:13;7.63;;;7.13;;
37937;SDS011;23763;48.130;11.602;2023-02-01T14:36:47;7.17;;;6.77;;
37937;SDS011;23763;48.130;11.602;2023-02-01T14:55:50;8.30;;;7.37;;
37937;SDS011;23763;48.130;11.602;2023-02-01T15:01:01;7.77;;;7.13;;
37937;SDS011;23763;48.130;11.602;2023-02-01T15:03:45;8.53;;;7.70;;
37937;SDS011;23763;48.130;11.602;2023-02-01T15:06:23;8.17;;;7.23;;
37937;SDS011;23763;48.130;11.602;2023-02-01T15:15:33;8.57;;;7.80;;
37937;SDS011;23763;48.130;11.602;2023-02-01T15:18:00;9.03;;;8.10;;
37937;SDS011;23763;48.130;11.602;2023-02-01T15:23:33;8.33;;;7.63;;
37937;SDS011;23763;48.130;11.602;2023-02-01T15:26:08;7.60;;;6.97;;
37937;SDS011;23763;48.130;11.602;2023-02-01T15:28:40;9.00;;;8.20;;
37937;SDS011;23763;48.130;11.602;2023-02-01T15:31:09;8.70;;;7.80;;
37937;SDS011;23763;48.130;11.602;2023-02-01T15:33:55;8.37;;;7.67;;
37937;SDS011;23763;48.130;11.602;2023-02-01T15:36:25;8.67;;;7.80;;
37937;SDS011;23763;48.130;11.602;2023-02-01T15:41:48;8.00;;;7.40;;
37937;SDS011;23763;48.130;11.602;2023-02-01T15:44:37;8.00;;;7.20;;
37937;SDS011;23763;48.130;11.602;2023-02-01T15:47:18;8.97;;;8.17;;
37937;SDS011;23763;48.130;11.602;2023-02-01T15:49:50;9.07;;;8.20;;
37937;SDS011;23763;48.130;11.602;2023-02-01T15:55:02;8.60;;;7.47;;
37937;SDS011;23763;48.130;11.602;2023-02-01T15:57:38;8.40;;;7.67;;
37937;SDS011;23763;48.130;11.602;2023-02-01T16:00:06;8.67;;;7.87;;
37937;SDS011;23763;48.130;11.602;2023-02-01T16:02:50;9.57;;;8.60;;
37937;SDS011;23763;48.130;11.602;2023-02-01T16:05:35;8.63;;;7.80;;
37937;SDS011;23763;48.130;11.602;2023-02-01T16:10:49;9.23;;;8.53;;
37937;SDS011;23763;48.130;11.602;2023-02-01T16:13:18;9.40;;;8.57;;
37937;SDS011;23763;48.130;11.602;2023-02-01T16:15:45;8.37;;;7.67;;
37937;SDS011;23763;48.130;11.602;2023-02-01T16:18:12;8.13;;;7.43;;
37937;SDS011;23763;48.130;11.602;2023-02-01T16:20:39;7.73;;;7.03;;
37937;SDS011;23763;48.130;11.602;2023-02-01T16:23:09;8.37;;;7.67;;
37937;SDS011;23763;48.130;11.602;2023-02-01T16:25:36;7.63;;;6.97;;
37937;SDS011;23763;48.130;11.602;2023-02-01T16:28:02;8.63;;;7.83;;
37937;SDS011;23763;48.130;11.602;2023-02-01T16:30:29;9.97;;;7.53;;
37937;SDS011;23763;48.130;11.602;2023-02-01T16:32:56;7.90;;;7.13;;
37937;SDS011;23763;48.130;11.602;2023-02-01T16:35:30;7.70;;;6.87;;
37937;SDS011;23763;48.130;11.602;2023-02-01T16:38:01;8.73;;;7.93;;
37937;SDS011;23763;48.130;11.602;2023-02-01T16:40:33;7.80;;;7.00;;
37937;SDS011;23763;48.130;11.602;2023-02-01T16:43:00;7.73;;;7.17;;
37937;SDS011;23763;48.130;11.602;2023-02-01T16:45:25;11.27;;;6.70;;
37937;SDS011;23763;48.130;11.602;2023-02-01T16:47:52;9.60;;;7.07;;
37937;SDS011;23763;48.130;11.602;2023-02-01T16:50:23;7.57;;;6.87;;
37937;SDS011;23763;48.130;11.602;2023-02-01T16:52:53;7.37;;;6.67;;
37937;SDS011;23763;48.130;11.602;2023-02-01T16:55:20;11.63;;;7.50;;
37937;SDS011;23763;48.130;11.602;2023-02-01T16:57:46;9.90;;;7.07;;
37937;SDS011;23763;48.130;11.602;2023-02-01T17:00:12;7.87;;;7.20;;
37937;SDS011;23763;48.130;11.602;2023-02-01T17:02:40;10.30;;;9.30;;
37937;SDS011;23763;48.130;11.602;2023-02-01T17:05:07;7.27;;;6.60;;
37937;SDS011;23763;48.130;11.602;2023-02-01T17:07:33;8.43;;;7.63;;
37937;SDS011;23763;48.130;11.602;2023-02-01T17:09:59;7.87;;;7.10;;
37937;SDS011;23763;48.130;11.602;2023-02-01T17:12:28;8.03;;;7.33;;
37937;SDS011;23763;48.130;11.602;2023-02-01T17:14:55;7.33;;;6.60;;
37937;SDS011;23763;48.130;11.602;2023-02-01T17:17:22;8.90;;;7.37;;
37937;SDS011;23763;48.130;11.602;2023-02-01T17:19:50;12.00;;;9.63;;
37937;SDS011;23763;48.130;11.602;2023-02-01T17:22:18;11.63;;;7.53;;
37937;SDS011;23763;48.130;11.602;2023-02-01T17:24:44;7.33;;;6.63;;
37937;SDS011;23763;48.130;11.602;2023-02-01T17:27:10;8.63;;;7.77;;
37937;SDS011;23763;48.130;11.602;2023-02-01T17:29:36;8.80;;;7.57;;
37937;SDS011;23763;48.130;11.602;2023-02-01T17:32:02;10.57;;;7.40;;
37937;SDS011;23763;48.130;11.602;2023-02-01T17:34:29;12.23;;;7.73;;
37937;SDS011;23763;48.130;11.602;2023-02-01T17:36:55;8.33;;;7.53;;
37937;SDS011;23763;48.130;11.602;2023-02-01T17:39:21;10.83;;;8.90;;
37937;SDS011;23763;48.130;11.602;2023-02-01T17:42:08;8.40;;;7.60;;
37937;SDS011;23763;48.130;11.602;2023-02-01T17:44:36;7.40;;;6.67;;
37937;SDS011;23763;48.130;11.602;2023-02-01T17:47:02;7.23;;;6.63;;
37937;SDS011;23763;48.130;11.602;2023-02-01T17:49:28;7.63;;;6.90;;